sensor_id;sensor_type;location;lat;lon;timestamp;temperature;humidity
8408;DHT22;4241;48.452;9.216;2024-02-16T00:02:04;10.30;99.90
8408;DHT22;4241;48.452;9.216;2024-02-16T00:04:30;10.30;99.90
8408;DHT22;4241;48.452;9.216;2024-02-16T00:06:57;10.20;99.90
8408;DHT22;4241;48.452;9.216;2024-02-16T00:09:25;10.20;99.90
8408;DHT22;4241;48.452;9.216;2024-02-16T00:11:52;10.20;99.90
8408;DHT22;4241;48.452;9.216;2024-02-16T00:14:20;10.20;99.90
8408;DHT22;4241;48.452;9.216;2024-02-16T00:16:47;10.20;99.90
8408;DHT22;4241;48.452;9.216;2024-02-16T00:19:14;10.20;99.90
8408;DHT22;4241;48.452;9.216;2024-02-16T00:21:41;10.20;99.90
8408;DHT22;4241;48.452;9.216;2024-02-16T00:24:08;10.20;99.90
8408;DHT22;4241;48.452;9.216;2024-02-16T00:26:36;10.20;99.90
8408;DHT22;4241;48.452;9.216;2024-02-16T00:29:05;10.20;99.90
8408;DHT22;4241;48.452;9.216;2024-02-16T00:31:31;10.40;99.90
8408;DHT22;4241;48.452;9.216;2024-02-16T00:33:58;10.20;99.90
8408;DHT22;4241;48.452;9.216;2024-02-16T00:36:26;10.10;99.90
8408;DHT22;4241;48.452;9.216;2024-02-16T00:38:53;10.20;99.90
8408;DHT22;4241;48.452;9.216;2024-02-16T00:41:21;10.20;99.90
8408;DHT22;4241;48.452;9.216;2024-02-16T00:43:49;10.20;99.90
8408;DHT22;4241;48.452;9.216;2024-02-16T00:46:17;10.20;99.90
8408;DHT22;4241;48.452;9.216;2024-02-16T00:48:44;10.20;99.90
8408;DHT22;4241;48.452;9.216;2024-02-16T00:51:12;10.20;99.90
8408;DHT22;4241;48.452;9.216;2024-02-16T00:53:39;10.20;99.90
8408;DHT22;4241;48.452;9.216;2024-02-16T00:56:06;10.10;99.90
8408;DHT22;4241;48.452;9.216;2024-02-16T00:58:34;10.20;99.90
8408;DHT22;4241;48.452;9.216;2024-02-16T01:01:04;10.10;99.90
8408;DHT22;4241;48.452;9.216;2024-02-16T01:03:32;10.00;99.90
8408;DHT22;4241;48.452;9.216;2024-02-16T01:05:59;9.80;99.90
8408;DHT22;4241;48.452;9.216;2024-02-16T01:08:26;9.90;99.90
8408;DHT22;4241;48.452;9.216;2024-02-16T01:13:20;9.90;99.90
8408;DHT22;4241;48.452;9.216;2024-02-16T01:15:47;9.90;99.90
8408;DHT22;4241;48.452;9.216;2024-02-16T01:18:15;10.00;99.90
8408;DHT22;4241;48.452;9.216;2024-02-16T01:20:42;10.00;99.90
8408;DHT22;4241;48.452;9.216;2024-02-16T01:23:09;10.10;99.90
8408;DHT22;4241;48.452;9.216;2024-02-16T01:25:36;10.10;99.90
8408;DHT22;4241;48.452;9.216;2024-02-16T01:28:03;10.20;99.90
8408;DHT22;4241;48.452;9.216;2024-02-16T01:30:30;10.20;99.90
8408;DHT22;4241;48.452;9.216;2024-02-16T01:32:57;10.20;99.90
8408;DHT22;4241;48.452;9.216;2024-02-16T01:35:25;10.00;99.90
8408;DHT22;4241;48.452;9.216;2024-02-16T01:40:19;9.90;99.90
8408;DHT22;4241;48.452;9.216;2024-02-16T01:42:47;10.00;99.90
8408;DHT22;4241;48.452;9.216;2024-02-16T01:45:14;10.00;99.90
8408;DHT22;4241;48.452;9.216;2024-02-16T01:47:43;10.00;99.90
8408;DHT22;4241;48.452;9.216;2024-02-16T01:50:12;10.10;99.90
8408;DHT22;4241;48.452;9.216;2024-02-16T01:52:42;10.10;99.90
8408;DHT22;4241;48.452;9.216;2024-02-16T01:55:10;10.30;99.90
8408;DHT22;4241;48.452;9.216;2024-02-16T01:57:39;10.20;99.90
8408;DHT22;4241;48.452;9.216;2024-02-16T02:00:06;10.00;99.90
8408;DHT22;4241;48.452;9.216;2024-02-16T02:02:33;10.00;99.90
8408;DHT22;4241;48.452;9.216;2024-02-16T02:05:00;10.10;99.90
8408;DHT22;4241;48.452;9.216;2024-02-16T02:07:27;10.10;99.90
8408;DHT22;4241;48.452;9.216;2024-02-16T02:09:56;10.10;99.90
8408;DHT22;4241;48.452;9.216;2024-02-16T02:12:22;10.10;99.90
8408;DHT22;4241;48.452;9.216;2024-02-16T02:14:49;10.20;99.90
8408;DHT22;4241;48.452;9.216;2024-02-16T02:17:17;10.20;99.90
8408;DHT22;4241;48.452;9.216;2024-02-16T02:19:45;10.20;99.90
8408;DHT22;4241;48.452;9.216;2024-02-16T02:22:15;10.10;99.90
8408;DHT22;4241;48.452;9.216;2024-02-16T02:24:41;10.20;99.90
8408;DHT22;4241;48.452;9.216;2024-02-16T02:27:09;10.20;99.90
8408;DHT22;4241;48.452;9.216;2024-02-16T02:29:36;10.30;99.90
8408;DHT22;4241;48.452;9.216;2024-02-16T02:32:03;10.20;99.90
8408;DHT22;4241;48.452;9.216;2024-02-16T02:34:30;10.20;99.90
8408;DHT22;4241;48.452;9.216;2024-02-16T02:36:57;10.30;99.90
8408;DHT22;4241;48.452;9.216;2024-02-16T02:39:25;10.30;99.90
8408;DHT22;4241;48.452;9.216;2024-02-16T02:41:52;10.30;99.90
8408;DHT22;4241;48.452;9.216;2024-02-16T02:44:19;10.30;99.90
8408;DHT22;4241;48.452;9.216;2024-02-16T02:46:46;10.20;99.90
8408;DHT22;4241;48.452;9.216;2024-02-16T02:49:12;10.40;99.90
8408;DHT22;4241;48.452;9.216;2024-02-16T02:51:39;10.50;99.90
8408;DHT22;4241;48.452;9.216;2024-02-16T02:56:34;10.30;99.90
8408;DHT22;4241;48.452;9.216;2024-02-16T02:59:02;10.40;99.90
8408;DHT22;4241;48.452;9.216;2024-02-16T03:01:31;10.30;99.90
8408;DHT22;4241;48.452;9.216;2024-02-16T03:03:58;10.30;99.90
8408;DHT22;4241;48.452;9.216;2024-02-16T03:06:25;9.30;99.90
8408;DHT22;4241;48.452;9.216;2024-02-16T03:08:52;10.40;99.90
8408;DHT22;4241;48.452;9.216;2024-02-16T03:11:20;10.10;99.90
8408;DHT22;4241;48.452;9.216;2024-02-16T03:13:48;10.40;99.90
8408;DHT22;4241;48.452;9.216;2024-02-16T03:16:15;10.50;99.90
8408;DHT22;4241;48.452;9.216;2024-02-16T03:18:42;10.50;99.90
8408;DHT22;4241;48.452;9.216;2024-02-16T03:21:08;10.40;99.90
8408;DHT22;4241;48.452;9.216;2024-02-16T03:23:40;10.40;99.90
8408;DHT22;4241;48.452;9.216;2024-02-16T03:26:14;10.40;99.90
8408;DHT22;4241;48.452;9.216;2024-02-16T03:28:40;10.40;99.90
8408;DHT22;4241;48.452;9.216;2024-02-16T03:31:16;10.40;99.90
8408;DHT22;4241;48.452;9.216;2024-02-16T03:33:42;10.40;99.90
8408;DHT22;4241;48.452;9.216;2024-02-16T03:36:09;10.30;99.90
8408;DHT22;4241;48.452;9.216;2024-02-16T03:38:38;10.30;99.90
8408;DHT22;4241;48.452;9.216;2024-02-16T03:41:04;10.30;99.90
8408;DHT22;4241;48.452;9.216;2024-02-16T03:43:31;10.20;99.90
8408;DHT22;4241;48.452;9.216;2024-02-16T03:45:58;10.20;99.90
8408;DHT22;4241;48.452;9.216;2024-02-16T03:48:26;10.20;99.90
8408;DHT22;4241;48.452;9.216;2024-02-16T03:50:53;10.20;99.90
8408;DHT22;4241;48.452;9.216;2024-02-16T03:53:20;10.20;99.90
8408;DHT22;4241;48.452;9.216;2024-02-16T03:55:47;10.20;99.90
8408;DHT22;4241;48.452;9.216;2024-02-16T03:58:13;10.20;99.90
8408;DHT22;4241;48.452;9.216;2024-02-16T04:00:40;10.30;99.90
8408;DHT22;4241;48.452;9.216;2024-02-16T04:03:07;10.10;99.90
8408;DHT22;4241;48.452;9.216;2024-02-16T04:05:38;10.30;99.90
8408;DHT22;4241;48.452;9.216;2024-02-16T04:08:05;10.30;99.90
8408;DHT22;4241;48.452;9.216;2024-02-16T04:10:32;10.30;99.90
8408;DHT22;4241;48.452;9.216;2024-02-16T04:12:59;10.30;99.90
8408;DHT22;4241;48.452;9.216;2024-02-16T04:15:26;10.30;99.90
8408;DHT22;4241;48.452;9.216;2024-02-16T04:17:53;10.20;99.90
8408;DHT22;4241;48.452;9.216;2024-02-16T04:20:20;10.10;99.90
8408;DHT22;4241;48.452;9.216;2024-02-16T04:22:48;10.20;99.90
8408;DHT22;4241;48.452;9.216;2024-02-16T04:25:15;10.10;99.90
8408;DHT22;4241;48.452;9.216;2024-02-16T04:27:42;10.10;99.90
8408;DHT22;4241;48.452;9.216;2024-02-16T04:30:09;10.10;99.90
8408;DHT22;4241;48.452;9.216;2024-02-16T04:32:36;10.20;99.90
8408;DHT22;4241;48.452;9.216;2024-02-16T04:35:03;10.10;99.90
8408;DHT22;4241;48.452;9.216;2024-02-16T04:37:30;10.10;99.90
8408;DHT22;4241;48.452;9.216;2024-02-16T04:39:58;10.10;99.90
8408;DHT22;4241;48.452;9.216;2024-02-16T04:42:25;10.00;99.90
8408;DHT22;4241;48.452;9.216;2024-02-16T04:44:52;10.10;99.90
8408;DHT22;4241;48.452;9.216;2024-02-16T04:47:18;10.10;99.90
8408;DHT22;4241;48.452;9.216;2024-02-16T04:49:45;10.10;99.90
8408;DHT22;4241;48.452;9.216;2024-02-16T04:52:12;10.10;99.90
8408;DHT22;4241;48.452;9.216;2024-02-16T04:54:39;10.10;99.90
8408;DHT22;4241;48.452;9.216;2024-02-16T04:57:07;10.20;99.90
8408;DHT22;4241;48.452;9.216;2024-02-16T04:59:34;10.10;99.90
8408;DHT22;4241;48.452;9.216;2024-02-16T05:02:01;10.10;99.90
8408;DHT22;4241;48.452;9.216;2024-02-16T05:04:29;10.30;99.90
8408;DHT22;4241;48.452;9.216;2024-02-16T05:06:56;10.20;99.90
8408;DHT22;4241;48.452;9.216;2024-02-16T05:09:23;10.20;99.90
8408;DHT22;4241;48.452;9.216;2024-02-16T05:11:52;10.30;99.90
8408;DHT22;4241;48.452;9.216;2024-02-16T05:14:20;10.40;99.90
8408;DHT22;4241;48.452;9.216;2024-02-16T05:16:47;10.30;99.90
8408;DHT22;4241;48.452;9.216;2024-02-16T05:19:14;10.30;99.90
8408;DHT22;4241;48.452;9.216;2024-02-16T05:21:41;10.30;99.90
8408;DHT22;4241;48.452;9.216;2024-02-16T05:24:08;10.10;99.90
8408;DHT22;4241;48.452;9.216;2024-02-16T05:26:34;10.20;99.90
8408;DHT22;4241;48.452;9.216;2024-02-16T05:29:02;10.30;99.90
8408;DHT22;4241;48.452;9.216;2024-02-16T05:31:31;10.30;99.90
8408;DHT22;4241;48.452;9.216;2024-02-16T05:33:58;10.40;99.90
8408;DHT22;4241;48.452;9.216;2024-02-16T05:36:24;10.40;99.90
8408;DHT22;4241;48.452;9.216;2024-02-16T05:38:55;10.40;99.90
8408;DHT22;4241;48.452;9.216;2024-02-16T05:41:25;10.40;99.90
8408;DHT22;4241;48.452;9.216;2024-02-16T05:43:51;10.30;99.90
8408;DHT22;4241;48.452;9.216;2024-02-16T05:46:18;10.30;99.90
8408;DHT22;4241;48.452;9.216;2024-02-16T05:48:47;10.30;99.90
8408;DHT22;4241;48.452;9.216;2024-02-16T05:51:13;10.20;99.90
8408;DHT22;4241;48.452;9.216;2024-02-16T05:53:40;10.20;99.90
8408;DHT22;4241;48.452;9.216;2024-02-16T05:56:07;10.30;99.90
8408;DHT22;4241;48.452;9.216;2024-02-16T05:58:35;10.30;99.90
8408;DHT22;4241;48.452;9.216;2024-02-16T06:01:02;10.30;99.90
8408;DHT22;4241;48.452;9.216;2024-02-16T06:03:29;10.20;99.90
8408;DHT22;4241;48.452;9.216;2024-02-16T06:05:57;10.20;99.90
8408;DHT22;4241;48.452;9.216;2024-02-16T06:08:24;10.10;99.90
8408;DHT22;4241;48.452;9.216;2024-02-16T06:10:51;10.10;99.90
8408;DHT22;4241;48.452;9.216;2024-02-16T06:13:20;10.10;99.90
8408;DHT22;4241;48.452;9.216;2024-02-16T06:15:47;10.10;99.90
8408;DHT22;4241;48.452;9.216;2024-02-16T06:18:14;10.20;99.90
8408;DHT22;4241;48.452;9.216;2024-02-16T06:20:41;10.10;99.90
8408;DHT22;4241;48.452;9.216;2024-02-16T06:23:09;10.00;99.90
8408;DHT22;4241;48.452;9.216;2024-02-16T06:25:36;10.00;99.90
8408;DHT22;4241;48.452;9.216;2024-02-16T06:28:03;10.00;99.90
8408;DHT22;4241;48.452;9.216;2024-02-16T06:30:30;10.00;99.90
8408;DHT22;4241;48.452;9.216;2024-02-16T06:32:57;10.00;99.90
8408;DHT22;4241;48.452;9.216;2024-02-16T06:35:24;10.00;99.90
8408;DHT22;4241;48.452;9.216;2024-02-16T06:37:51;10.00;99.90
8408;DHT22;4241;48.452;9.216;2024-02-16T06:40:20;10.00;99.90
8408;DHT22;4241;48.452;9.216;2024-02-16T06:42:47;10.00;99.90
8408;DHT22;4241;48.452;9.216;2024-02-16T06:45:14;10.10;99.90
8408;DHT22;4241;48.452;9.216;2024-02-16T06:47:41;10.00;99.90
8408;DHT22;4241;48.452;9.216;2024-02-16T06:50:08;10.10;99.90
8408;DHT22;4241;48.452;9.216;2024-02-16T06:52:35;10.00;99.90
8408;DHT22;4241;48.452;9.216;2024-02-16T06:55:02;10.00;99.90
8408;DHT22;4241;48.452;9.216;2024-02-16T06:57:30;9.90;99.90
8408;DHT22;4241;48.452;9.216;2024-02-16T06:59:58;10.10;99.90
8408;DHT22;4241;48.452;9.216;2024-02-16T07:02:25;10.00;99.90
8408;DHT22;4241;48.452;9.216;2024-02-16T07:04:52;10.00;99.90
8408;DHT22;4241;48.452;9.216;2024-02-16T07:07:18;10.10;99.90
8408;DHT22;4241;48.452;9.216;2024-02-16T07:09:45;10.10;99.90
8408;DHT22;4241;48.452;9.216;2024-02-16T07:12:12;10.10;99.90
8408;DHT22;4241;48.452;9.216;2024-02-16T07:14:40;10.00;99.90
8408;DHT22;4241;48.452;9.216;2024-02-16T07:17:09;10.00;99.90
8408;DHT22;4241;48.452;9.216;2024-02-16T07:19:36;10.00;99.90
8408;DHT22;4241;48.452;9.216;2024-02-16T07:22:03;10.00;99.90
8408;DHT22;4241;48.452;9.216;2024-02-16T07:24:32;10.00;99.90
8408;DHT22;4241;48.452;9.216;2024-02-16T07:26:58;10.00;99.90
8408;DHT22;4241;48.452;9.216;2024-02-16T07:29:25;10.00;99.90
8408;DHT22;4241;48.452;9.216;2024-02-16T07:31:54;10.00;99.90
8408;DHT22;4241;48.452;9.216;2024-02-16T07:34:21;10.10;99.90
8408;DHT22;4241;48.452;9.216;2024-02-16T07:36:48;10.10;99.90
8408;DHT22;4241;48.452;9.216;2024-02-16T07:39:15;10.00;99.90
8408;DHT22;4241;48.452;9.216;2024-02-16T07:41:42;10.20;99.90
8408;DHT22;4241;48.452;9.216;2024-02-16T07:44:09;10.00;99.90
8408;DHT22;4241;48.452;9.216;2024-02-16T07:46:40;10.00;99.90
8408;DHT22;4241;48.452;9.216;2024-02-16T07:49:08;10.10;99.90
8408;DHT22;4241;48.452;9.216;2024-02-16T07:51:36;10.10;99.90
8408;DHT22;4241;48.452;9.216;2024-02-16T07:54:04;10.10;99.90
8408;DHT22;4241;48.452;9.216;2024-02-16T07:56:31;10.10;99.90
8408;DHT22;4241;48.452;9.216;2024-02-16T07:58:58;10.00;99.90
8408;DHT22;4241;48.452;9.216;2024-02-16T08:01:25;10.00;99.90
8408;DHT22;4241;48.452;9.216;2024-02-16T08:03:53;10.00;99.90
8408;DHT22;4241;48.452;9.216;2024-02-16T08:06:25;10.10;99.90
8408;DHT22;4241;48.452;9.216;2024-02-16T08:08:52;10.10;99.90
8408;DHT22;4241;48.452;9.216;2024-02-16T08:11:19;10.10;99.90
8408;DHT22;4241;48.452;9.216;2024-02-16T08:13:47;10.10;99.90
8408;DHT22;4241;48.452;9.216;2024-02-16T08:16:13;10.10;99.90
8408;DHT22;4241;48.452;9.216;2024-02-16T08:18:43;10.10;99.90
8408;DHT22;4241;48.452;9.216;2024-02-16T08:21:10;10.20;99.90
8408;DHT22;4241;48.452;9.216;2024-02-16T08:23:39;10.10;99.90
8408;DHT22;4241;48.452;9.216;2024-02-16T08:26:05;10.10;99.90
8408;DHT22;4241;48.452;9.216;2024-02-16T08:28:32;10.10;99.90
8408;DHT22;4241;48.452;9.216;2024-02-16T08:30:59;10.10;99.90
8408;DHT22;4241;48.452;9.216;2024-02-16T08:33:26;10.20;99.90
8408;DHT22;4241;48.452;9.216;2024-02-16T08:38:20;10.30;99.90
8408;DHT22;4241;48.452;9.216;2024-02-16T08:40:48;10.30;99.90
8408;DHT22;4241;48.452;9.216;2024-02-16T08:43:17;10.50;99.90
8408;DHT22;4241;48.452;9.216;2024-02-16T08:45:44;10.40;99.90
8408;DHT22;4241;48.452;9.216;2024-02-16T08:48:11;10.50;99.90
8408;DHT22;4241;48.452;9.216;2024-02-16T08:50:37;10.60;99.90
8408;DHT22;4241;48.452;9.216;2024-02-16T08:53:04;10.70;99.90
8408;DHT22;4241;48.452;9.216;2024-02-16T08:55:31;10.80;99.90
8408;DHT22;4241;48.452;9.216;2024-02-16T08:57:59;11.10;99.90
8408;DHT22;4241;48.452;9.216;2024-02-16T09:00:26;11.10;99.90
8408;DHT22;4241;48.452;9.216;2024-02-16T09:02:53;11.00;99.90
8408;DHT22;4241;48.452;9.216;2024-02-16T09:05:20;11.10;99.90
8408;DHT22;4241;48.452;9.216;2024-02-16T09:07:48;11.20;99.90
8408;DHT22;4241;48.452;9.216;2024-02-16T09:10:15;11.10;99.90
8408;DHT22;4241;48.452;9.216;2024-02-16T09:12:42;11.20;99.90
8408;DHT22;4241;48.452;9.216;2024-02-16T09:15:11;11.30;99.90
8408;DHT22;4241;48.452;9.216;2024-02-16T09:17:38;11.40;99.90
8408;DHT22;4241;48.452;9.216;2024-02-16T09:20:06;11.50;99.90
8408;DHT22;4241;48.452;9.216;2024-02-16T09:22:33;11.60;99.90
8408;DHT22;4241;48.452;9.216;2024-02-16T09:25:01;11.80;99.90
8408;DHT22;4241;48.452;9.216;2024-02-16T09:27:28;11.80;99.90
8408;DHT22;4241;48.452;9.216;2024-02-16T09:29:55;12.00;99.90
8408;DHT22;4241;48.452;9.216;2024-02-16T09:32:23;12.10;99.90
8408;DHT22;4241;48.452;9.216;2024-02-16T09:34:50;12.20;99.90
8408;DHT22;4241;48.452;9.216;2024-02-16T09:37:17;12.30;99.90
8408;DHT22;4241;48.452;9.216;2024-02-16T09:39:44;12.50;99.90
8408;DHT22;4241;48.452;9.216;2024-02-16T09:42:11;12.60;99.90
8408;DHT22;4241;48.452;9.216;2024-02-16T09:44:40;12.90;99.90
8408;DHT22;4241;48.452;9.216;2024-02-16T09:47:09;12.90;99.90
8408;DHT22;4241;48.452;9.216;2024-02-16T09:49:40;13.10;99.90
8408;DHT22;4241;48.452;9.216;2024-02-16T09:52:10;13.20;99.90
8408;DHT22;4241;48.452;9.216;2024-02-16T09:54:37;13.30;99.90
8408;DHT22;4241;48.452;9.216;2024-02-16T09:57:05;13.30;99.90
8408;DHT22;4241;48.452;9.216;2024-02-16T09:59:32;13.40;99.90
8408;DHT22;4241;48.452;9.216;2024-02-16T10:01:59;13.60;99.90
8408;DHT22;4241;48.452;9.216;2024-02-16T10:04:26;13.80;99.90
8408;DHT22;4241;48.452;9.216;2024-02-16T10:06:55;13.90;99.90
8408;DHT22;4241;48.452;9.216;2024-02-16T10:09:23;14.00;99.90
8408;DHT22;4241;48.452;9.216;2024-02-16T10:11:50;14.20;99.90
8408;DHT22;4241;48.452;9.216;2024-02-16T10:14:17;13.80;99.90
8408;DHT22;4241;48.452;9.216;2024-02-16T10:16:45;14.50;99.90
8408;DHT22;4241;48.452;9.216;2024-02-16T10:19:12;14.60;99.90
8408;DHT22;4241;48.452;9.216;2024-02-16T10:21:39;14.80;99.90
8408;DHT22;4241;48.452;9.216;2024-02-16T10:24:09;15.00;99.90
8408;DHT22;4241;48.452;9.216;2024-02-16T10:26:37;15.20;99.90
8408;DHT22;4241;48.452;9.216;2024-02-16T10:29:05;15.30;99.90
8408;DHT22;4241;48.452;9.216;2024-02-16T10:31:32;15.50;99.90
8408;DHT22;4241;48.452;9.216;2024-02-16T10:34:00;15.60;99.30
8408;DHT22;4241;48.452;9.216;2024-02-16T10:36:32;15.70;99.90
8408;DHT22;4241;48.452;9.216;2024-02-16T10:38:59;15.90;99.90
8408;DHT22;4241;48.452;9.216;2024-02-16T10:41:33;16.10;99.90
8408;DHT22;4241;48.452;9.216;2024-02-16T10:44:01;16.40;99.90
8408;DHT22;4241;48.452;9.216;2024-02-16T10:46:28;16.50;99.90
8408;DHT22;4241;48.452;9.216;2024-02-16T10:48:55;16.50;99.70
8408;DHT22;4241;48.452;9.216;2024-02-16T10:51:28;16.70;99.60
8408;DHT22;4241;48.452;9.216;2024-02-16T10:53:59;16.70;98.60
8408;DHT22;4241;48.452;9.216;2024-02-16T10:56:27;16.70;97.60
8408;DHT22;4241;48.452;9.216;2024-02-16T10:59:00;16.70;99.90
8408;DHT22;4241;48.452;9.216;2024-02-16T11:01:28;16.70;99.90
8408;DHT22;4241;48.452;9.216;2024-02-16T11:04:00;16.50;99.90
8408;DHT22;4241;48.452;9.216;2024-02-16T11:06:28;17.80;99.90
8408;DHT22;4241;48.452;9.216;2024-02-16T11:09:01;16.20;99.90
8408;DHT22;4241;48.452;9.216;2024-02-16T11:11:33;16.00;99.90
8408;DHT22;4241;48.452;9.216;2024-02-16T11:14:03;15.90;99.90
8408;DHT22;4241;48.452;9.216;2024-02-16T11:16:30;15.70;99.90
8408;DHT22;4241;48.452;9.216;2024-02-16T11:18:57;15.70;99.90
8408;DHT22;4241;48.452;9.216;2024-02-16T11:21:24;16.70;99.90
8408;DHT22;4241;48.452;9.216;2024-02-16T11:23:51;15.70;99.90
8408;DHT22;4241;48.452;9.216;2024-02-16T11:26:18;15.70;99.90
8408;DHT22;4241;48.452;9.216;2024-02-16T11:28:45;15.70;99.90
8408;DHT22;4241;48.452;9.216;2024-02-16T11:31:13;15.80;99.90
8408;DHT22;4241;48.452;9.216;2024-02-16T11:33:43;15.70;99.90
8408;DHT22;4241;48.452;9.216;2024-02-16T11:36:10;15.60;99.90
8408;DHT22;4241;48.452;9.216;2024-02-16T11:38:37;15.70;99.90
8408;DHT22;4241;48.452;9.216;2024-02-16T11:41:06;15.70;99.90
8408;DHT22;4241;48.452;9.216;2024-02-16T11:43:34;15.60;99.90
8408;DHT22;4241;48.452;9.216;2024-02-16T11:46:11;15.90;99.90
8408;DHT22;4241;48.452;9.216;2024-02-16T11:48:40;15.80;99.90
8408;DHT22;4241;48.452;9.216;2024-02-16T11:51:07;15.70;99.90
8408;DHT22;4241;48.452;9.216;2024-02-16T11:53:34;15.70;99.90
8408;DHT22;4241;48.452;9.216;2024-02-16T11:56:01;15.70;99.90
8408;DHT22;4241;48.452;9.216;2024-02-16T11:58:28;15.80;99.90
8408;DHT22;4241;48.452;9.216;2024-02-16T12:00:56;15.80;99.90
8408;DHT22;4241;48.452;9.216;2024-02-16T12:03:25;15.90;99.90
8408;DHT22;4241;48.452;9.216;2024-02-16T12:05:56;16.00;99.90
8408;DHT22;4241;48.452;9.216;2024-02-16T12:08:23;16.10;99.90
8408;DHT22;4241;48.452;9.216;2024-02-16T12:10:51;16.00;99.90
8408;DHT22;4241;48.452;9.216;2024-02-16T12:13:19;16.00;99.90
8408;DHT22;4241;48.452;9.216;2024-02-16T12:15:46;16.10;99.90
8408;DHT22;4241;48.452;9.216;2024-02-16T12:18:20;16.10;99.90
8408;DHT22;4241;48.452;9.216;2024-02-16T12:20:58;16.20;99.90
8408;DHT22;4241;48.452;9.216;2024-02-16T12:23:25;16.20;99.90
8408;DHT22;4241;48.452;9.216;2024-02-16T12:25:52;16.30;99.90
8408;DHT22;4241;48.452;9.216;2024-02-16T12:28:19;16.30;99.90
8408;DHT22;4241;48.452;9.216;2024-02-16T12:30:47;16.30;99.90
8408;DHT22;4241;48.452;9.216;2024-02-16T12:33:14;16.30;99.90
8408;DHT22;4241;48.452;9.216;2024-02-16T12:35:42;16.40;99.90
8408;DHT22;4241;48.452;9.216;2024-02-16T12:38:11;16.30;99.90
8408;DHT22;4241;48.452;9.216;2024-02-16T12:40:38;16.30;99.90
8408;DHT22;4241;48.452;9.216;2024-02-16T12:43:05;16.30;99.90
8408;DHT22;4241;48.452;9.216;2024-02-16T12:45:34;16.40;99.90
8408;DHT22;4241;48.452;9.216;2024-02-16T12:48:01;16.30;99.90
8408;DHT22;4241;48.452;9.216;2024-02-16T12:50:29;16.30;99.90
8408;DHT22;4241;48.452;9.216;2024-02-16T12:52:56;16.30;99.90
8408;DHT22;4241;48.452;9.216;2024-02-16T12:55:25;16.40;99.90
8408;DHT22;4241;48.452;9.216;2024-02-16T12:57:52;16.40;99.90
8408;DHT22;4241;48.452;9.216;2024-02-16T13:00:19;16.50;99.90
8408;DHT22;4241;48.452;9.216;2024-02-16T13:02:46;16.50;99.90
8408;DHT22;4241;48.452;9.216;2024-02-16T13:05:13;16.60;99.90
8408;DHT22;4241;48.452;9.216;2024-02-16T13:07:40;16.60;99.90
8408;DHT22;4241;48.452;9.216;2024-02-16T13:10:07;16.60;99.90
8408;DHT22;4241;48.452;9.216;2024-02-16T13:12:37;16.50;99.90
8408;DHT22;4241;48.452;9.216;2024-02-16T13:15:05;16.50;99.90
8408;DHT22;4241;48.452;9.216;2024-02-16T13:17:32;16.50;99.90
8408;DHT22;4241;48.452;9.216;2024-02-16T13:19:59;16.60;99.90
8408;DHT22;4241;48.452;9.216;2024-02-16T13:22:32;16.50;99.90
8408;DHT22;4241;48.452;9.216;2024-02-16T13:24:59;16.30;99.90
8408;DHT22;4241;48.452;9.216;2024-02-16T13:27:26;16.40;99.90
8408;DHT22;4241;48.452;9.216;2024-02-16T13:29:54;16.30;99.90
8408;DHT22;4241;48.452;9.216;2024-02-16T13:32:21;16.40;99.90
8408;DHT22;4241;48.452;9.216;2024-02-16T13:34:48;16.30;99.90
8408;DHT22;4241;48.452;9.216;2024-02-16T13:37:15;16.30;99.90
8408;DHT22;4241;48.452;9.216;2024-02-16T13:39:42;16.30;99.90
8408;DHT22;4241;48.452;9.216;2024-02-16T13:42:09;16.30;99.90
8408;DHT22;4241;48.452;9.216;2024-02-16T13:44:36;16.20;99.90
8408;DHT22;4241;48.452;9.216;2024-02-16T13:47:04;16.20;99.90
8408;DHT22;4241;48.452;9.216;2024-02-16T13:49:31;16.20;99.90
8408;DHT22;4241;48.452;9.216;2024-02-16T13:51:58;16.30;99.90
8408;DHT22;4241;48.452;9.216;2024-02-16T13:54:25;16.30;99.90
8408;DHT22;4241;48.452;9.216;2024-02-16T13:56:52;16.30;99.90
8408;DHT22;4241;48.452;9.216;2024-02-16T13:59:19;16.30;99.90
8408;DHT22;4241;48.452;9.216;2024-02-16T14:01:46;16.30;99.90
8408;DHT22;4241;48.452;9.216;2024-02-16T14:04:15;16.30;99.90
8408;DHT22;4241;48.452;9.216;2024-02-16T14:06:42;16.30;99.90
8408;DHT22;4241;48.452;9.216;2024-02-16T14:09:08;16.20;99.90
8408;DHT22;4241;48.452;9.216;2024-02-16T14:11:39;16.20;99.90
8408;DHT22;4241;48.452;9.216;2024-02-16T14:14:07;16.20;99.90
8408;DHT22;4241;48.452;9.216;2024-02-16T14:16:34;16.20;99.90
8408;DHT22;4241;48.452;9.216;2024-02-16T14:19:01;16.10;99.90
8408;DHT22;4241;48.452;9.216;2024-02-16T14:21:29;16.10;99.90
8408;DHT22;4241;48.452;9.216;2024-02-16T14:23:56;16.10;99.90
8408;DHT22;4241;48.452;9.216;2024-02-16T14:26:23;16.00;99.90
8408;DHT22;4241;48.452;9.216;2024-02-16T14:28:50;16.00;99.90
8408;DHT22;4241;48.452;9.216;2024-02-16T14:31:17;15.90;99.90
8408;DHT22;4241;48.452;9.216;2024-02-16T14:33:46;15.90;99.90
8408;DHT22;4241;48.452;9.216;2024-02-16T14:36:13;15.90;99.90
8408;DHT22;4241;48.452;9.216;2024-02-16T14:38:42;15.80;99.90
8408;DHT22;4241;48.452;9.216;2024-02-16T14:41:08;15.80;99.90
8408;DHT22;4241;48.452;9.216;2024-02-16T14:43:35;15.70;99.90
8408;DHT22;4241;48.452;9.216;2024-02-16T14:46:02;15.70;99.90
8408;DHT22;4241;48.452;9.216;2024-02-16T14:48:30;15.70;99.90
8408;DHT22;4241;48.452;9.216;2024-02-16T14:50:57;15.70;99.90
8408;DHT22;4241;48.452;9.216;2024-02-16T14:53:24;15.60;99.90
8408;DHT22;4241;48.452;9.216;2024-02-16T14:55:52;15.60;99.90
8408;DHT22;4241;48.452;9.216;2024-02-16T14:58:19;15.70;99.90
8408;DHT22;4241;48.452;9.216;2024-02-16T15:00:46;15.60;99.90
8408;DHT22;4241;48.452;9.216;2024-02-16T15:03:15;15.60;99.90
8408;DHT22;4241;48.452;9.216;2024-02-16T15:05:45;15.40;99.90
8408;DHT22;4241;48.452;9.216;2024-02-16T15:08:12;15.50;99.90
8408;DHT22;4241;48.452;9.216;2024-02-16T15:10:38;15.50;99.90
8408;DHT22;4241;48.452;9.216;2024-02-16T15:13:06;15.40;99.90
8408;DHT22;4241;48.452;9.216;2024-02-16T15:15:33;15.40;99.90
8408;DHT22;4241;48.452;9.216;2024-02-16T15:18:00;15.40;99.90
8408;DHT22;4241;48.452;9.216;2024-02-16T15:20:28;15.40;99.90
8408;DHT22;4241;48.452;9.216;2024-02-16T15:22:55;15.30;99.90
8408;DHT22;4241;48.452;9.216;2024-02-16T15:25:23;15.30;99.90
8408;DHT22;4241;48.452;9.216;2024-02-16T15:27:50;15.30;99.90
8408;DHT22;4241;48.452;9.216;2024-02-16T15:30:19;15.30;99.90
8408;DHT22;4241;48.452;9.216;2024-02-16T15:32:46;15.30;99.90
8408;DHT22;4241;48.452;9.216;2024-02-16T15:35:12;15.30;99.90
8408;DHT22;4241;48.452;9.216;2024-02-16T15:37:39;15.20;99.90
8408;DHT22;4241;48.452;9.216;2024-02-16T15:40:08;15.20;99.90
8408;DHT22;4241;48.452;9.216;2024-02-16T15:42:35;15.20;99.90
8408;DHT22;4241;48.452;9.216;2024-02-16T15:45:02;15.10;99.90
8408;DHT22;4241;48.452;9.216;2024-02-16T15:47:31;15.10;99.90
8408;DHT22;4241;48.452;9.216;2024-02-16T15:49:58;15.10;99.90
8408;DHT22;4241;48.452;9.216;2024-02-16T15:52:24;15.10;99.90
8408;DHT22;4241;48.452;9.216;2024-02-16T15:54:51;15.10;99.90
8408;DHT22;4241;48.452;9.216;2024-02-16T15:57:18;15.10;99.90
8408;DHT22;4241;48.452;9.216;2024-02-16T15:59:45;15.10;99.90
8408;DHT22;4241;48.452;9.216;2024-02-16T16:02:12;15.10;99.90
8408;DHT22;4241;48.452;9.216;2024-02-16T16:04:40;15.10;99.90
8408;DHT22;4241;48.452;9.216;2024-02-16T16:07:07;15.10;99.90
8408;DHT22;4241;48.452;9.216;2024-02-16T16:09:36;15.10;99.90
8408;DHT22;4241;48.452;9.216;2024-02-16T16:12:04;15.10;99.90
8408;DHT22;4241;48.452;9.216;2024-02-16T16:14:31;15.10;99.90